sensor_id;sensor_type;location;lat;lon;timestamp;pressure;altitude;pressure_sealevel;temperature;humidity
44385;BME280;30101;32.778;34.994;2022-11-15T00:02:31;97756.91;;;18.92;65.33
44385;BME280;30101;32.778;34.994;2022-11-15T00:07:59;97756.38;;;18.90;65.28
44385;BME280;30101;32.778;34.994;2022-11-15T00:13:26;97759.88;;;18.90;65.40
44385;BME280;30101;32.778;34.994;2022-11-15T00:18:48;97768.00;;;18.90;65.43
44385;BME280;30101;32.778;34.994;2022-11-15T00:24:11;97762.03;;;18.88;65.70
44385;BME280;30101;32.778;34.994;2022-11-15T00:29:33;97750.41;;;18.88;65.68
44385;BME280;30101;32.778;34.994;2022-11-15T00:34:55;97758.22;;;18.84;65.67
44385;BME280;30101;32.778;34.994;2022-11-15T00:40:17;97754.44;;;18.85;65.64
44385;BME280;30101;32.778;34.994;2022-11-15T00:45:46;97760.13;;;18.83;65.62
44385;BME280;30101;32.778;34.994;2022-11-15T00:51:14;97757.97;;;18.85;65.75
44385;BME280;30101;32.778;34.994;2022-11-15T00:56:36;97758.56;;;18.93;65.67
44385;BME280;30101;32.778;34.994;2022-11-15T01:01:58;97758.00;;;18.96;65.51
44385;BME280;30101;32.778;34.994;2022-11-15T01:07:20;97755.59;;;18.99;65.46
44385;BME280;30101;32.778;34.994;2022-11-15T01:12:42;97764.81;;;19.03;65.50
44385;BME280;30101;32.778;34.994;2022-11-15T01:18:04;97753.75;;;19.10;65.32
44385;BME280;30101;32.778;34.994;2022-11-15T01:23:32;97757.56;;;19.14;65.10
44385;BME280;30101;32.778;34.994;2022-11-15T01:28:55;97752.41;;;19.12;65.09
44385;BME280;30101;32.778;34.994;2022-11-15T01:34:16;97758.06;;;19.06;65.46
44385;BME280;30101;32.778;34.994;2022-11-15T01:39:38;97755.34;;;19.01;65.34
44385;BME280;30101;32.778;34.994;2022-11-15T01:45:00;97762.63;;;18.95;65.58
44385;BME280;30101;32.778;34.994;2022-11-15T01:50:28;97765.88;;;18.92;65.38
44385;BME280;30101;32.778;34.994;2022-11-15T01:55:53;97775.59;;;18.93;65.51
44385;BME280;30101;32.778;34.994;2022-11-15T02:01:15;97782.09;;;18.92;65.26
44385;BME280;30101;32.778;34.994;2022-11-15T02:06:38;97778.81;;;18.90;65.50
44385;BME280;30101;32.778;34.994;2022-11-15T02:12:00;97773.97;;;18.92;65.27
44385;BME280;30101;32.778;34.994;2022-11-15T02:40:47;97768.66;;;18.65;65.49
44385;BME280;30101;32.778;34.994;2022-11-15T02:52:03;97775.38;;;18.57;65.21
44385;BME280;30101;32.778;34.994;2022-11-15T02:57:45;97781.84;;;18.56;65.48
44385;BME280;30101;32.778;34.994;2022-11-15T03:03:29;97772.66;;;18.57;65.62
44385;BME280;30101;32.778;34.994;2022-11-15T03:14:54;97781.59;;;18.58;65.73
44385;BME280;30101;32.778;34.994;2022-11-15T03:20:19;97788.88;;;18.57;66.02
44385;BME280;30101;32.778;34.994;2022-11-15T03:25:41;97794.88;;;18.65;65.15
44385;BME280;30101;32.778;34.994;2022-11-15T03:31:06;97794.13;;;18.69;65.45
44385;BME280;30101;32.778;34.994;2022-11-15T03:36:32;97789.25;;;18.71;65.49
44385;BME280;30101;32.778;34.994;2022-11-15T03:42:06;97789.81;;;18.68;65.41
44385;BME280;30101;32.778;34.994;2022-11-15T03:47:41;97805.16;;;18.63;65.69
44385;BME280;30101;32.778;34.994;2022-11-15T03:53:05;97807.25;;;18.55;65.76
44385;BME280;30101;32.778;34.994;2022-11-15T03:58:27;97803.47;;;18.56;65.87
44385;BME280;30101;32.778;34.994;2022-11-15T04:03:49;97803.53;;;18.62;65.91
44385;BME280;30101;32.778;34.994;2022-11-15T04:09:11;97792.97;;;18.65;65.57
44385;BME280;30101;32.778;34.994;2022-11-15T04:14:51;97793.78;;;18.66;65.82
44385;BME280;30101;32.778;34.994;2022-11-15T04:25:43;97794.06;;;18.64;66.07
44385;BME280;30101;32.778;34.994;2022-11-15T04:31:23;97801.06;;;18.60;66.25
44385;BME280;30101;32.778;34.994;2022-11-15T04:37:04;97803.25;;;18.63;66.16
44385;BME280;30101;32.778;34.994;2022-11-15T04:42:44;97794.69;;;18.71;66.06
44385;BME280;30101;32.778;34.994;2022-11-15T04:48:17;97811.75;;;18.77;66.03
44385;BME280;30101;32.778;34.994;2022-11-15T04:53:39;97818.56;;;18.79;66.07
44385;BME280;30101;32.778;34.994;2022-11-15T04:59:02;97813.16;;;18.84;65.97
44385;BME280;30101;32.778;34.994;2022-11-15T05:04:23;97820.75;;;18.88;65.97
44385;BME280;30101;32.778;34.994;2022-11-15T05:09:45;97834.31;;;18.93;66.06
44385;BME280;30101;32.778;34.994;2022-11-15T05:15:08;97840.56;;;18.98;65.91
44385;BME280;30101;32.778;34.994;2022-11-15T05:20:30;97837.09;;;19.08;65.88
44385;BME280;30101;32.778;34.994;2022-11-15T05:25:51;97840.69;;;19.19;65.66
44385;BME280;30101;32.778;34.994;2022-11-15T05:31:15;97842.91;;;19.32;65.65
44385;BME280;30101;32.778;34.994;2022-11-15T05:36:46;97850.53;;;19.45;65.51
44385;BME280;30101;32.778;34.994;2022-11-15T05:42:10;97848.13;;;19.49;65.44
44385;BME280;30101;32.778;34.994;2022-11-15T05:47:34;97848.13;;;19.54;65.60
44385;BME280;30101;32.778;34.994;2022-11-15T05:52:57;97854.97;;;19.72;65.10
44385;BME280;30101;32.778;34.994;2022-11-15T05:58:25;97849.88;;;19.90;64.96
44385;BME280;30101;32.778;34.994;2022-11-15T06:03:47;97848.03;;;20.21;64.03
44385;BME280;30101;32.778;34.994;2022-11-15T06:09:09;97860.50;;;20.28;64.05
44385;BME280;30101;32.778;34.994;2022-11-15T06:14:31;97867.00;;;20.16;64.28
44385;BME280;30101;32.778;34.994;2022-11-15T06:19:53;97867.53;;;20.08;64.60
44385;BME280;30101;32.778;34.994;2022-11-15T06:25:15;97860.75;;;20.01;64.66
44385;BME280;30101;32.778;34.994;2022-11-15T06:30:36;97859.69;;;20.07;64.68
44385;BME280;30101;32.778;34.994;2022-11-15T06:36:07;97857.28;;;20.26;64.32
44385;BME280;30101;32.778;34.994;2022-11-15T06:41:37;97854.03;;;20.39;64.06
44385;BME280;30101;32.778;34.994;2022-11-15T06:46:59;97854.84;;;20.39;64.18
44385;BME280;30101;32.778;34.994;2022-11-15T06:52:22;97857.53;;;20.34;64.05
44385;BME280;30101;32.778;34.994;2022-11-15T06:57:51;97868.38;;;20.39;64.27
44385;BME280;30101;32.778;34.994;2022-11-15T07:03:13;97862.47;;;20.63;63.88
44385;BME280;30101;32.778;34.994;2022-11-15T07:08:35;97867.06;;;20.88;63.34
44385;BME280;30101;32.778;34.994;2022-11-15T07:13:57;97868.66;;;20.94;63.36
44385;BME280;30101;32.778;34.994;2022-11-15T07:19:18;97868.34;;;21.06;63.11
44385;BME280;30101;32.778;34.994;2022-11-15T07:24:42;97867.00;;;21.18;62.74
44385;BME280;30101;32.778;34.994;2022-11-15T07:30:05;97868.59;;;21.30;61.97
44385;BME280;30101;32.778;34.994;2022-11-15T07:35:28;97867.25;;;21.37;61.79
44385;BME280;30101;32.778;34.994;2022-11-15T07:40:56;97866.16;;;21.38;61.40
44385;BME280;30101;32.778;34.994;2022-11-15T07:46:19;97860.16;;;21.36;61.43
44385;BME280;30101;32.778;34.994;2022-11-15T07:51:40;97862.84;;;21.41;61.07
44385;BME280;30101;32.778;34.994;2022-11-15T07:57:03;97862.56;;;21.43;60.62
44385;BME280;30101;32.778;34.994;2022-11-15T08:02:30;97857.72;;;21.40;60.42
44385;BME280;30101;32.778;34.994;2022-11-15T08:07:55;97858.81;;;21.39;60.35
44385;BME280;30101;32.778;34.994;2022-11-15T08:13:17;97846.63;;;21.31;60.54
44385;BME280;30101;32.778;34.994;2022-11-15T08:18:40;97846.03;;;21.44;60.19
44385;BME280;30101;32.778;34.994;2022-11-15T08:24:04;97848.16;;;21.52;60.13
44385;BME280;30101;32.778;34.994;2022-11-15T08:29:28;97832.13;;;21.56;59.90
44385;BME280;30101;32.778;34.994;2022-11-15T08:34:53;97837.50;;;21.61;59.51
44385;BME280;30101;32.778;34.994;2022-11-15T08:40:16;97834.75;;;21.66;59.41
44385;BME280;30101;32.778;34.994;2022-11-15T08:45:38;97835.28;;;21.68;59.48
44385;BME280;30101;32.778;34.994;2022-11-15T08:51:00;97831.75;;;21.73;59.49
44385;BME280;30101;32.778;34.994;2022-11-15T08:56:22;97830.91;;;21.77;59.54
44385;BME280;30101;32.778;34.994;2022-11-15T09:01:43;97824.56;;;21.92;59.19
44385;BME280;30101;32.778;34.994;2022-11-15T09:07:05;97825.59;;;22.01;58.79
44385;BME280;30101;32.778;34.994;2022-11-15T09:12:27;97809.47;;;22.15;58.53
44385;BME280;30101;32.778;34.994;2022-11-15T09:17:48;97807.88;;;22.14;58.51
44385;BME280;30101;32.778;34.994;2022-11-15T09:23:12;97795.38;;;22.13;58.65
44385;BME280;30101;32.778;34.994;2022-11-15T09:28:36;97788.56;;;22.05;58.60
44385;BME280;30101;32.778;34.994;2022-11-15T09:34:02;97783.13;;;22.05;58.95
44385;BME280;30101;32.778;34.994;2022-11-15T09:39:24;97773.06;;;22.11;58.80
44385;BME280;30101;32.778;34.994;2022-11-15T09:50:17;97766.81;;;22.11;58.61
44385;BME280;30101;32.778;34.994;2022-11-15T09:55:34;97754.31;;;22.10;58.66
44385;BME280;30101;32.778;34.994;2022-11-15T10:00:44;97751.06;;;22.07;58.68
44385;BME280;30101;32.778;34.994;2022-11-15T10:05:52;97739.41;;;22.02;58.69
44385;BME280;30101;32.778;34.994;2022-11-15T10:11:02;97735.28;;;22.04;58.73
44385;BME280;30101;32.778;34.994;2022-11-15T10:22:05;97725.28;;;22.34;58.32
44385;BME280;30101;32.778;34.994;2022-11-15T10:27:16;97710.00;;;22.38;58.13
44385;BME280;30101;32.778;34.994;2022-11-15T10:32:21;97707.03;;;22.34;57.89
44385;BME280;30101;32.778;34.994;2022-11-15T10:37:28;97709.84;;;22.24;57.51
44385;BME280;30101;32.778;34.994;2022-11-15T10:42:32;97712.69;;;22.14;57.60
44385;BME280;30101;32.778;34.994;2022-11-15T10:47:36;97706.19;;;22.05;57.21
44385;BME280;30101;32.778;34.994;2022-11-15T10:52:45;97704.06;;;22.02;56.97
44385;BME280;30101;32.778;34.994;2022-11-15T10:57:55;97707.06;;;22.00;56.73
44385;BME280;30101;32.778;34.994;2022-11-15T11:03:02;97699.47;;;21.97;56.31
44385;BME280;30101;32.778;34.994;2022-11-15T11:08:22;97705.22;;;21.91;56.26
44385;BME280;30101;32.778;34.994;2022-11-15T11:13:29;97707.13;;;21.90;56.05
44385;BME280;30101;32.778;34.994;2022-11-15T11:18:41;97706.88;;;21.87;55.92
44385;BME280;30101;32.778;34.994;2022-11-15T11:24:08;97707.47;;;21.84;55.97
44385;BME280;30101;32.778;34.994;2022-11-15T11:29:26;97705.84;;;21.83;55.90
44385;BME280;30101;32.778;34.994;2022-11-15T11:51:27;97697.31;;;21.60;55.90
44385;BME280;30101;32.778;34.994;2022-11-15T11:56:37;97703.66;;;21.45;56.06
44385;BME280;30101;32.778;34.994;2022-11-15T12:01:43;97701.56;;;21.37;55.96
44385;BME280;30101;32.778;34.994;2022-11-15T12:12:13;97698.84;;;21.37;55.74
44385;BME280;30101;32.778;34.994;2022-11-15T12:17:25;97693.09;;;21.44;55.50
44385;BME280;30101;32.778;34.994;2022-11-15T12:22:35;97694.72;;;21.45;55.48
44385;BME280;30101;32.778;34.994;2022-11-15T12:33:00;97686.19;;;20.22;58.66
44385;BME280;30101;32.778;34.994;2022-11-15T12:38:04;97693.53;;;20.11;59.04
44385;BME280;30101;32.778;34.994;2022-11-15T12:53:43;97692.84;;;20.81;57.50
44385;BME280;30101;32.778;34.994;2022-11-15T12:58:58;97697.13;;;20.92;57.39
44385;BME280;30101;32.778;34.994;2022-11-15T13:19:40;97694.59;;;21.06;57.22
44385;BME280;30101;32.778;34.994;2022-11-15T13:24:44;97692.47;;;21.02;57.30
44385;BME280;30101;32.778;34.994;2022-11-15T13:29:48;97696.03;;;20.93;57.30
44385;BME280;30101;32.778;34.994;2022-11-15T13:34:51;97694.69;;;20.85;57.55
44385;BME280;30101;32.778;34.994;2022-11-15T13:40:15;97704.22;;;20.83;57.43
44385;BME280;30101;32.778;34.994;2022-11-15T13:45:19;97704.75;;;20.80;57.58
44385;BME280;30101;32.778;34.994;2022-11-15T13:50:28;97716.47;;;20.75;57.69
44385;BME280;30101;32.778;34.994;2022-11-15T13:55:33;97711.88;;;20.65;57.92
44385;BME280;30101;32.778;34.994;2022-11-15T14:00:42;97711.06;;;20.60;58.28
44385;BME280;30101;32.778;34.994;2022-11-15T14:06:11;97699.47;;;20.49;58.08
44385;BME280;30101;32.778;34.994;2022-11-15T14:11:18;97698.91;;;20.37;58.60
44385;BME280;30101;32.778;34.994;2022-11-15T14:16:39;97699.44;;;20.29;58.80
44385;BME280;30101;32.778;34.994;2022-11-15T14:27:28;97701.63;;;20.16;59.34
44385;BME280;30101;32.778;34.994;2022-11-15T14:32:48;97695.16;;;20.12;59.46
44385;BME280;30101;32.778;34.994;2022-11-15T14:37:52;97694.34;;;20.07;59.67
44385;BME280;30101;32.778;34.994;2022-11-15T14:42:55;97693.53;;;19.96;59.97
44385;BME280;30101;32.778;34.994;2022-11-15T14:47:58;97687.56;;;19.89;60.42
44385;BME280;30101;32.778;34.994;2022-11-15T14:53:01;97688.94;;;19.81;60.57
44385;BME280;30101;32.778;34.994;2022-11-15T14:58:06;97697.34;;;19.75;60.66
44385;BME280;30101;32.778;34.994;2022-11-15T15:03:10;97696.22;;;19.65;61.00
44385;BME280;30101;32.778;34.994;2022-11-15T15:08:13;97698.41;;;19.63;60.94
44385;BME280;30101;32.778;34.994;2022-11-15T15:13:19;97698.94;;;19.60;61.45
44385;BME280;30101;32.778;34.994;2022-11-15T15:18:23;97694.59;;;19.59;61.35
44385;BME280;30101;32.778;34.994;2022-11-15T15:23:27;97693.22;;;19.57;61.55
44385;BME280;30101;32.778;34.994;2022-11-15T15:28:30;97693.75;;;19.54;61.52
44385;BME280;30101;32.778;34.994;2022-11-15T15:33:37;97701.03;;;19.48;61.78
44385;BME280;30101;32.778;34.994;2022-11-15T15:38:41;97704.81;;;19.42;61.96
44385;BME280;30101;32.778;34.994;2022-11-15T15:43:44;97709.97;;;19.38;62.06
44385;BME280;30101;32.778;34.994;2022-11-15T15:48:48;97708.63;;;19.36;62.08
44385;BME280;30101;32.778;34.994;2022-11-15T15:53:51;97710.78;;;19.34;62.29
44385;BME280;30101;32.778;34.994;2022-11-15T15:58:54;97715.13;;;19.30;62.18
44385;BME280;30101;32.778;34.994;2022-11-15T16:03:58;97712.41;;;19.25;62.50
44385;BME280;30101;32.778;34.994;2022-11-15T16:09:02;97714.00;;;19.21;62.57
44385;BME280;30101;32.778;34.994;2022-11-15T16:14:23;97709.66;;;19.20;62.50
44385;BME280;30101;32.778;34.994;2022-11-15T16:19:26;97715.09;;;19.25;62.37
44385;BME280;30101;32.778;34.994;2022-11-15T16:24:29;97709.13;;;19.23;62.46
44385;BME280;30101;32.778;34.994;2022-11-15T16:29:33;97720.75;;;19.23;62.54
44385;BME280;30101;32.778;34.994;2022-11-15T16:34:36;97713.47;;;19.29;62.19
44385;BME280;30101;32.778;34.994;2022-11-15T16:39:45;97714.81;;;19.26;62.46
44385;BME280;30101;32.778;34.994;2022-11-15T16:44:49;97726.72;;;19.20;62.64
44385;BME280;30101;32.778;34.994;2022-11-15T16:49:52;97719.94;;;19.12;62.61
44385;BME280;30101;32.778;34.994;2022-11-15T16:54:56;97724.00;;;19.15;62.74
44385;BME280;30101;32.778;34.994;2022-11-15T17:00:00;97721.28;;;19.15;62.77
44385;BME280;30101;32.778;34.994;2022-11-15T17:05:07;97717.78;;;19.20;62.70
44385;BME280;30101;32.778;34.994;2022-11-15T17:10:15;97718.59;;;19.20;62.71
44385;BME280;30101;32.778;34.994;2022-11-15T17:15:18;97711.84;;;19.18;62.66
44385;BME280;30101;32.778;34.994;2022-11-15T17:20:23;97725.09;;;19.19;62.94
44385;BME280;30101;32.778;34.994;2022-11-15T17:25:27;97723.47;;;19.18;63.06
44385;BME280;30101;32.778;34.994;2022-11-15T17:30:30;97726.44;;;19.17;62.99
44385;BME280;30101;32.778;34.994;2022-11-15T17:35:34;97724.00;;;19.15;62.94
44385;BME280;30101;32.778;34.994;2022-11-15T17:40:37;97724.00;;;19.15;63.06
44385;BME280;30101;32.778;34.994;2022-11-15T17:45:41;97713.72;;;19.12;62.93
44385;BME280;30101;32.778;34.994;2022-11-15T17:50:58;97715.31;;;19.08;62.97
44385;BME280;30101;32.778;34.994;2022-11-15T17:56:03;97719.63;;;19.04;63.15
44385;BME280;30101;32.778;34.994;2022-11-15T18:01:17;97719.06;;;19.02;63.07
44385;BME280;30101;32.778;34.994;2022-11-15T18:06:22;97714.47;;;19.02;63.28
44385;BME280;30101;32.778;34.994;2022-11-15T18:11:29;97715.56;;;19.01;63.14
44385;BME280;30101;32.778;34.994;2022-11-15T18:16:39;97715.03;;;18.99;63.14
44385;BME280;30101;32.778;34.994;2022-11-15T18:21:44;97725.28;;;18.97;63.18
44385;BME280;30101;32.778;34.994;2022-11-15T18:26:47;97723.69;;;19.01;63.08
44385;BME280;30101;32.778;34.994;2022-11-15T18:31:51;97716.91;;;19.04;62.94
44385;BME280;30101;32.778;34.994;2022-11-15T18:36:55;97719.38;;;19.05;62.82
44385;BME280;30101;32.778;34.994;2022-11-15T18:41:58;97712.59;;;19.08;62.70
44385;BME280;30101;32.778;34.994;2022-11-15T18:47:02;97709.38;;;19.11;62.79
44385;BME280;30101;32.778;34.994;2022-11-15T18:52:06;97702.88;;;19.12;62.60
44385;BME280;30101;32.778;34.994;2022-11-15T18:57:09;97704.50;;;19.13;62.44
44385;BME280;30101;32.778;34.994;2022-11-15T19:02:13;97704.78;;;19.17;62.19
44385;BME280;30101;32.778;34.994;2022-11-15T19:07:17;97702.34;;;19.20;62.13
44385;BME280;30101;32.778;34.994;2022-11-15T19:12:21;97696.94;;;19.20;62.19
44385;BME280;30101;32.778;34.994;2022-11-15T19:17:29;97695.03;;;19.16;62.08
44385;BME280;30101;32.778;34.994;2022-11-15T19:22:35;97695.31;;;19.14;62.02
44385;BME280;30101;32.778;34.994;2022-11-15T19:27:38;97694.78;;;19.17;61.92
44385;BME280;30101;32.778;34.994;2022-11-15T19:32:41;97697.50;;;19.17;62.05
44385;BME280;30101;32.778;34.994;2022-11-15T19:37:44;97690.16;;;19.12;62.26
44385;BME280;30101;32.778;34.994;2022-11-15T19:42:48;97686.09;;;19.10;62.27
44385;BME280;30101;32.778;34.994;2022-11-15T19:47:51;97690.69;;;19.09;62.11
44385;BME280;30101;32.778;34.994;2022-11-15T19:52:55;97687.72;;;19.11;62.19
44385;BME280;30101;32.778;34.994;2022-11-15T19:57:58;97691.22;;;19.06;62.53
44385;BME280;30101;32.778;34.994;2022-11-15T20:03:03;97690.94;;;19.03;62.68
44385;BME280;30101;32.778;34.994;2022-11-15T20:08:06;97693.38;;;18.99;62.65
44385;BME280;30101;32.778;34.994;2022-11-15T20:13:10;97694.47;;;18.98;62.61
44385;BME280;30101;32.778;34.994;2022-11-15T20:18:15;97698.50;;;18.96;62.82
44385;BME280;30101;32.778;34.994;2022-11-15T20:23:18;97704.19;;;18.94;62.80
44385;BME280;30101;32.778;34.994;2022-11-15T20:28:22;97696.84;;;18.90;62.70
44385;BME280;30101;32.778;34.994;2022-11-15T20:33:26;97702.53;;;18.88;62.63
44385;BME280;30101;32.778;34.994;2022-11-15T20:38:31;97696.81;;;18.84;62.82
44385;BME280;30101;32.778;34.994;2022-11-15T20:43:35;97689.25;;;18.81;62.92
44385;BME280;30101;32.778;34.994;2022-11-15T20:48:37;97690.56;;;18.79;62.62
44385;BME280;30101;32.778;34.994;2022-11-15T20:53:42;97687.63;;;18.80;62.73
44385;BME280;30101;32.778;34.994;2022-11-15T20:58:46;97686.81;;;18.80;62.91
44385;BME280;30101;32.778;34.994;2022-11-15T21:03:51;97681.66;;;18.83;62.67
44385;BME280;30101;32.778;34.994;2022-11-15T21:09:04;97673.81;;;18.82;62.60
44385;BME280;30101;32.778;34.994;2022-11-15T21:14:07;97663.28;;;18.80;62.56
44385;BME280;30101;32.778;34.994;2022-11-15T21:19:12;97666.22;;;18.79;62.75
44385;BME280;30101;32.778;34.994;2022-11-15T21:24:24;97663.22;;;18.70;62.68
44385;BME280;30101;32.778;34.994;2022-11-15T21:29:29;97659.66;;;18.65;62.80
44385;BME280;30101;32.778;34.994;2022-11-15T21:34:33;97659.34;;;18.56;62.81
44385;BME280;30101;32.778;34.994;2022-11-15T21:39:38;97662.53;;;18.48;62.84
44385;BME280;30101;32.778;34.994;2022-11-15T21:44:41;97658.47;;;18.40;62.98
44385;BME280;30101;32.778;34.994;2022-11-15T21:49:45;97660.09;;;18.41;63.03
44385;BME280;30101;32.778;34.994;2022-11-15T21:54:48;97656.03;;;18.39;63.07
44385;BME280;30101;32.778;34.994;2022-11-15T21:59:51;97661.69;;;18.37;63.00
44385;BME280;30101;32.778;34.994;2022-11-15T22:04:54;97666.81;;;18.33;63.20
44385;BME280;30101;32.778;34.994;2022-11-15T22:09:58;97671.41;;;18.33;63.14
44385;BME280;30101;32.778;34.994;2022-11-15T22:15:02;97668.41;;;18.29;63.21
44385;BME280;30101;32.778;34.994;2022-11-15T22:20:06;97651.91;;;18.26;63.20
44385;BME280;30101;32.778;34.994;2022-11-15T22:25:29;97643.50;;;18.22;63.12
44385;BME280;30101;32.778;34.994;2022-11-15T22:30:33;97646.72;;;18.19;63.13
44385;BME280;30101;32.778;34.994;2022-11-15T22:35:37;97650.22;;;18.15;63.21
44385;BME280;30101;32.778;34.994;2022-11-15T22:40:41;97644.53;;;18.11;63.14
44385;BME280;30101;32.778;34.994;2022-11-15T22:45:51;97643.16;;;18.09;63.07
44385;BME280;30101;32.778;34.994;2022-11-15T22:50:54;97639.34;;;18.04;63.12
44385;BME280;30101;32.778;34.994;2022-11-15T22:56:03;97639.06;;;18.01;62.87
44385;BME280;30101;32.778;34.994;2022-11-15T23:01:18;97634.41;;;17.96;62.79
44385;BME280;30101;32.778;34.994;2022-11-15T23:06:23;97635.72;;;17.89;62.96
44385;BME280;30101;32.778;34.994;2022-11-15T23:11:26;97631.38;;;17.83;62.97
44385;BME280;30101;32.778;34.994;2022-11-15T23:16:29;97622.41;;;17.77;63.13
44385;BME280;30101;32.778;34.994;2022-11-15T23:21:41;97628.63;;;17.77;63.11
44385;BME280;30101;32.778;34.994;2022-11-15T23:26:46;97618.13;;;17.81;62.96
44385;BME280;30101;32.778;34.994;2022-11-15T23:31:51;97623.56;;;17.86;62.96
44385;BME280;30101;32.778;34.994;2022-11-15T23:37:04;97613.03;;;17.90;62.75
44385;BME280;30101;32.778;34.994;2022-11-15T23:42:08;97613.13;;;18.00;62.64
44385;BME280;30101;32.778;34.994;2022-11-15T23:47:11;97607.75;;;18.05;62.52
44385;BME280;30101;32.778;34.994;2022-11-15T23:52:15;97596.09;;;17.99;62.72
44385;BME280;30101;32.778;34.994;2022-11-15T23:57:19;97592.28;;;17.95;62.87
